createdAt,value
2017-07-06T00:00:12.301Z,15.90
2017-07-06T00:02:41.089Z,15.90
2017-07-06T00:05:09.721Z,15.80
2017-07-06T00:07:38.667Z,15.80
2017-07-06T00:10:06.942Z,15.80
2017-07-06T00:12:35.680Z,15.70
2017-07-06T00:15:04.730Z,15.60
2017-07-06T00:17:33.942Z,15.60
2017-07-06T00:20:02.229Z,15.60
2017-07-06T00:22:30.504Z,15.60
2017-07-06T00:24:59.103Z,15.60
2017-07-06T00:27:27.574Z,15.60
2017-07-06T00:29:56.161Z,15.60
2017-07-06T00:32:24.473Z,15.60
2017-07-06T00:34:52.843Z,15.60
2017-07-06T00:37:21.211Z,15.60
2017-07-06T00:39:49.506Z,15.50
2017-07-06T00:42:18.097Z,15.40
2017-07-06T00:44:46.368Z,15.40
2017-07-06T00:47:14.656Z,15.30
2017-07-06T00:49:43.441Z,15.30
2017-07-06T00:52:11.751Z,15.30
2017-07-06T00:54:40.311Z,15.30
2017-07-06T00:57:08.590Z,15.30
2017-07-06T00:59:37.613Z,15.30
2017-07-06T01:02:05.994Z,15.20
2017-07-06T01:04:34.275Z,15.20
2017-07-06T01:07:02.855Z,15.20
2017-07-06T01:09:31.141Z,15.10
2017-07-06T01:11:59.408Z,15.10
2017-07-06T01:14:27.707Z,15.10
2017-07-06T01:16:56.034Z,15.10
2017-07-06T01:19:25.915Z,15.20
2017-07-06T01:21:54.898Z,15.10
2017-07-06T01:24:23.165Z,15.20
2017-07-06T01:26:52.070Z,15.20
2017-07-06T01:29:20.351Z,15.20
2017-07-06T01:31:48.930Z,15.20
2017-07-06T01:34:17.213Z,15.20
2017-07-06T01:36:45.490Z,15.20
2017-07-06T01:39:13.781Z,15.20
2017-07-06T01:41:42.059Z,15.20
2017-07-06T01:44:10.656Z,15.20
2017-07-06T01:46:38.946Z,15.20
2017-07-06T01:49:07.231Z,15.20
2017-07-06T01:51:35.510Z,15.20
2017-07-06T01:54:03.895Z,15.20
2017-07-06T01:56:32.468Z,15.20
2017-07-06T01:59:00.747Z,15.30
2017-07-06T02:01:30.239Z,15.30
2017-07-06T02:03:59.361Z,15.30
2017-07-06T02:06:27.637Z,15.30
2017-07-06T02:08:56.640Z,15.30
2017-07-06T02:11:24.907Z,15.40
2017-07-06T02:13:53.445Z,15.30
2017-07-06T02:16:21.735Z,15.30
2017-07-06T02:18:50.769Z,15.30
2017-07-06T02:21:20.294Z,15.30
2017-07-06T02:23:48.695Z,15.30
2017-07-06T02:26:17.082Z,15.30
2017-07-06T02:28:45.450Z,15.30
2017-07-06T02:31:13.731Z,15.30
2017-07-06T02:33:42.339Z,15.40
2017-07-06T02:36:10.624Z,15.40
2017-07-06T02:38:38.973Z,15.50
2017-07-06T02:41:07.407Z,15.50
2017-07-06T02:43:35.711Z,15.60
2017-07-06T02:46:05.876Z,15.60
2017-07-06T02:48:34.663Z,15.60
2017-07-06T02:51:02.942Z,15.60
2017-07-06T02:53:31.245Z,15.60
2017-07-06T02:55:59.554Z,15.70
2017-07-06T02:58:28.201Z,15.70
2017-07-06T03:00:56.480Z,15.70
2017-07-06T03:03:24.771Z,15.80
2017-07-06T03:05:53.538Z,15.80
2017-07-06T03:08:21.819Z,15.90
2017-07-06T03:10:50.436Z,15.90
2017-07-06T03:13:19.014Z,15.90
2017-07-06T03:15:47.289Z,15.90
2017-07-06T03:18:15.592Z,15.90
2017-07-06T03:20:43.850Z,16.00
2017-07-06T03:23:12.437Z,16.00
2017-07-06T03:25:40.939Z,16.00
2017-07-06T03:28:09.205Z,16.00
2017-07-06T03:30:37.507Z,16.00
2017-07-06T03:33:06.399Z,16.10
2017-07-06T03:35:34.974Z,16.10
2017-07-06T03:38:03.357Z,16.20
2017-07-06T03:40:31.752Z,16.30
2017-07-06T03:43:00.632Z,16.30
2017-07-06T03:45:28.907Z,16.40
2017-07-06T03:47:57.525Z,16.50
2017-07-06T03:50:25.916Z,16.60
2017-07-06T03:52:54.219Z,16.60
2017-07-06T03:55:23.289Z,16.70
2017-07-06T03:57:51.576Z,16.70
2017-07-06T04:00:20.160Z,16.80
2017-07-06T04:02:48.429Z,16.90
2017-07-06T04:05:16.705Z,17.00
2017-07-06T04:07:45.080Z,17.10
2017-07-06T04:10:13.372Z,17.20
2017-07-06T04:12:41.770Z,17.30
2017-07-06T04:15:10.141Z,17.30
2017-07-06T04:17:38.428Z,17.30
2017-07-06T04:20:07.005Z,17.40
2017-07-06T04:22:35.811Z,17.40
2017-07-06T04:25:04.565Z,17.50
2017-07-06T04:27:33.180Z,17.50
2017-07-06T04:30:01.461Z,17.60
2017-07-06T04:32:30.233Z,17.70
2017-07-06T04:34:59.137Z,17.80
2017-07-06T04:37:27.438Z,17.80
2017-07-06T04:39:55.991Z,17.80
2017-07-06T04:42:24.587Z,17.90
2017-07-06T04:44:53.311Z,17.90
2017-07-06T04:47:21.721Z,18.00
2017-07-06T04:49:50.007Z,18.10
2017-07-06T04:52:18.705Z,18.20
2017-07-06T04:54:46.991Z,18.20
2017-07-06T04:57:16.863Z,18.40
2017-07-06T04:59:45.166Z,18.40
2017-07-06T05:02:14.041Z,18.50
2017-07-06T05:04:42.618Z,18.60
2017-07-06T05:07:10.901Z,18.70
2017-07-06T05:09:39.913Z,18.80
2017-07-06T05:12:08.192Z,18.90
2017-07-06T05:14:36.465Z,19.10
2017-07-06T05:17:05.063Z,19.10
2017-07-06T05:19:33.481Z,19.20
2017-07-06T05:22:02.284Z,19.30
2017-07-06T05:24:31.356Z,19.50
2017-07-06T05:27:00.529Z,19.60
2017-07-06T05:29:29.153Z,19.60
2017-07-06T05:31:58.040Z,19.70
2017-07-06T05:34:26.314Z,19.80
2017-07-06T05:36:54.684Z,20.00
2017-07-06T05:39:22.986Z,20.10
2017-07-06T05:41:51.886Z,20.20
2017-07-06T05:44:20.234Z,20.30
2017-07-06T05:46:48.522Z,20.40
2017-07-06T05:49:16.939Z,20.60
2017-07-06T05:51:46.549Z,20.70
2017-07-06T05:54:17.648Z,20.80
2017-07-06T05:56:46.157Z,20.80
2017-07-06T05:59:14.450Z,20.80
2017-07-06T06:01:42.844Z,20.90
2017-07-06T06:04:11.098Z,21.00
2017-07-06T06:06:39.792Z,21.10
2017-07-06T06:09:08.065Z,21.10
2017-07-06T06:11:36.387Z,21.10
2017-07-06T06:14:04.739Z,21.10
2017-07-06T06:16:33.015Z,21.00
2017-07-06T06:19:02.107Z,21.10
2017-07-06T06:21:30.377Z,21.20
2017-07-06T06:23:58.693Z,21.30
2017-07-06T06:26:27.491Z,21.50
2017-07-06T06:28:55.773Z,21.60
2017-07-06T06:31:24.333Z,21.70
2017-07-06T06:33:52.631Z,21.80
2017-07-06T06:36:21.868Z,21.80
2017-07-06T06:38:50.505Z,21.80
2017-07-06T06:41:19.406Z,21.70
2017-07-06T06:43:49.055Z,21.60
2017-07-06T06:46:17.352Z,21.60
2017-07-06T06:48:47.639Z,21.70
2017-07-06T06:51:15.942Z,21.70
2017-07-06T06:53:44.342Z,21.70
2017-07-06T06:56:13.006Z,21.90
2017-07-06T06:58:41.401Z,21.70
2017-07-06T07:01:09.770Z,21.70
2017-07-06T07:03:38.089Z,21.70
2017-07-06T07:06:07.141Z,22.00
2017-07-06T07:08:35.725Z,21.90
2017-07-06T07:11:05.730Z,22.20
2017-07-06T07:13:34.031Z,22.50
2017-07-06T07:16:02.327Z,22.70
2017-07-06T07:18:30.699Z,23.00
2017-07-06T07:20:59.928Z,23.30
2017-07-06T07:23:28.291Z,23.70
2017-07-06T07:25:56.585Z,23.90
2017-07-06T07:28:24.969Z,24.30
2017-07-06T07:30:53.234Z,24.60
2017-07-06T07:33:21.831Z,24.60
2017-07-06T07:35:50.760Z,24.60
2017-07-06T07:38:21.378Z,24.60
2017-07-06T07:40:49.711Z,24.50
2017-07-06T07:43:18.023Z,24.50
2017-07-06T07:45:48.459Z,24.60
2017-07-06T07:48:17.661Z,24.60
2017-07-06T07:50:46.159Z,24.70
2017-07-06T07:53:15.907Z,24.70
2017-07-06T07:55:45.060Z,24.70
2017-07-06T07:58:18.567Z,24.60
2017-07-06T08:00:48.064Z,24.80
2017-07-06T08:03:16.329Z,24.80
2017-07-06T08:05:44.659Z,25.00
2017-07-06T08:08:13.016Z,25.20
2017-07-06T08:10:45.910Z,25.30
2017-07-06T08:13:14.211Z,25.20
2017-07-06T08:15:42.513Z,25.20
2017-07-06T08:18:11.095Z,25.30
2017-07-06T08:20:40.183Z,25.00
2017-07-06T08:23:08.504Z,25.00
2017-07-06T08:25:36.829Z,24.60
2017-07-06T08:28:05.182Z,24.40
2017-07-06T08:30:33.813Z,24.40
2017-07-06T08:33:02.113Z,24.20
2017-07-06T08:35:31.238Z,24.70
2017-07-06T08:37:59.524Z,24.60
2017-07-06T08:40:28.793Z,24.70
2017-07-06T08:42:58.912Z,25.10
2017-07-06T08:45:27.732Z,25.10
2017-07-06T08:47:56.804Z,24.60
2017-07-06T08:50:25.091Z,24.60
2017-07-06T08:52:55.031Z,24.10
2017-07-06T08:55:24.612Z,24.10
2017-07-06T08:57:53.495Z,23.90
2017-07-06T09:00:21.812Z,24.00
2017-07-06T09:02:51.875Z,24.60
2017-07-06T09:05:20.501Z,24.50
2017-07-06T09:07:49.056Z,25.10
2017-07-06T09:10:17.369Z,25.30
2017-07-06T09:12:46.737Z,25.80
2017-07-06T09:15:16.636Z,26.40
2017-07-06T09:17:45.037Z,26.70
2017-07-06T09:20:16.314Z,26.50
2017-07-06T09:22:48.196Z,26.60
2017-07-06T09:25:19.158Z,26.10
2017-07-06T09:27:50.265Z,26.20
2017-07-06T09:30:19.779Z,26.20
2017-07-06T09:32:49.707Z,26.60
2017-07-06T09:35:18.830Z,26.80
2017-07-06T09:37:47.162Z,26.80
2017-07-06T09:40:16.312Z,26.60
2017-07-06T09:42:45.663Z,26.70
2017-07-06T09:45:13.947Z,26.70
2017-07-06T09:47:42.351Z,26.70
2017-07-06T09:50:11.233Z,26.80
2017-07-06T09:52:40.248Z,26.60
2017-07-06T09:55:08.971Z,26.90
2017-07-06T09:57:37.280Z,27.40
2017-07-06T10:00:05.571Z,27.70
2017-07-06T10:02:33.864Z,27.70
2017-07-06T10:05:02.155Z,27.90
2017-07-06T10:07:31.553Z,28.00
2017-07-06T10:09:59.863Z,27.90
2017-07-06T10:12:29.872Z,27.70
2017-07-06T10:14:58.251Z,27.70
2017-07-06T10:17:26.747Z,27.90
2017-07-06T10:19:55.368Z,28.50
2017-07-06T10:22:24.444Z,28.90
2017-07-06T10:24:52.756Z,28.90
2017-07-06T10:27:21.391Z,29.50
2017-07-06T10:29:50.203Z,30.00
2017-07-06T10:32:18.691Z,30.70
2017-07-06T10:34:48.065Z,31.30
2017-07-06T10:37:16.365Z,31.80
2017-07-06T10:39:44.749Z,31.70
2017-07-06T10:42:13.306Z,31.20
2017-07-06T10:44:41.626Z,30.80
2017-07-06T10:47:10.010Z,29.90
2017-07-06T10:49:38.573Z,30.00
2017-07-06T10:52:06.907Z,29.80
2017-07-06T10:54:35.834Z,29.80
2017-07-06T10:57:04.449Z,29.60
2017-07-06T10:59:33.251Z,29.60
2017-07-06T11:02:02.445Z,29.40
2017-07-06T11:04:31.047Z,29.70
2017-07-06T11:07:00.583Z,29.60
2017-07-06T11:09:30.384Z,29.50
2017-07-06T11:11:59.715Z,29.50
2017-07-06T11:14:28.491Z,29.50
2017-07-06T11:16:57.263Z,29.80
2017-07-06T11:19:26.056Z,30.10
2017-07-06T11:21:54.320Z,29.80
2017-07-06T11:24:22.693Z,29.80
2017-07-06T11:26:51.270Z,29.50
2017-07-06T11:29:19.587Z,29.10
2017-07-06T11:31:47.938Z,28.80
2017-07-06T11:34:16.766Z,29.10
2017-07-06T11:36:45.868Z,32.60
2017-07-06T11:41:45.283Z,37.00
2017-07-06T11:44:15.340Z,39.90
2017-07-06T11:46:44.407Z,42.00
2017-07-06T11:49:14.468Z,43.50
2017-07-06T11:51:43.613Z,44.00
2017-07-06T11:54:12.234Z,43.90
2017-07-06T11:59:10.439Z,45.80
2017-07-06T12:01:40.139Z,46.20
2017-07-06T12:04:08.739Z,46.20
2017-07-06T12:06:37.814Z,45.40
2017-07-06T12:09:07.241Z,44.00
2017-07-06T12:11:36.845Z,44.40
2017-07-06T12:14:05.915Z,45.60
2017-07-06T12:16:35.094Z,45.50
2017-07-06T12:19:05.626Z,43.60
2017-07-06T12:21:33.916Z,43.60
2017-07-06T12:24:02.236Z,42.00
2017-07-06T12:26:32.076Z,39.10
2017-07-06T12:29:00.437Z,39.00
2017-07-06T12:31:28.713Z,38.00
2017-07-06T12:33:57.322Z,37.20
2017-07-06T12:36:25.652Z,36.30
2017-07-06T12:38:55.135Z,34.60
2017-07-06T12:41:24.131Z,34.50
2017-07-06T12:43:53.247Z,34.30
2017-07-06T12:46:22.299Z,33.80
2017-07-06T12:48:50.990Z,33.70
2017-07-06T12:51:19.305Z,33.30
2017-07-06T12:53:48.351Z,34.20
2017-07-06T12:56:16.949Z,34.20
2017-07-06T12:58:45.261Z,35.00
2017-07-06T13:01:13.556Z,34.50
2017-07-06T13:03:43.940Z,34.70
2017-07-06T13:06:12.444Z,34.60
2017-07-06T13:08:40.689Z,35.30
2017-07-06T13:11:08.993Z,36.30
2017-07-06T13:13:37.280Z,36.00
2017-07-06T13:16:05.893Z,35.10
2017-07-06T13:18:34.935Z,36.70
2017-07-06T13:21:03.207Z,36.70
2017-07-06T13:23:32.123Z,37.90
2017-07-06T13:26:00.391Z,38.50
2017-07-06T13:28:30.451Z,38.00
2017-07-06T13:30:59.243Z,37.50
2017-07-06T13:33:27.632Z,37.10
2017-07-06T13:35:56.127Z,37.10
2017-07-06T13:38:24.416Z,36.70
2017-07-06T13:40:53.737Z,35.20
2017-07-06T13:43:22.786Z,35.60
2017-07-06T13:45:51.088Z,35.50
2017-07-06T13:48:19.426Z,35.60
2017-07-06T13:50:47.741Z,34.90
2017-07-06T13:55:58.308Z,34.10
2017-07-06T13:58:26.592Z,33.90
2017-07-06T14:00:55.195Z,33.80
2017-07-06T14:03:23.477Z,33.70
2017-07-06T14:05:52.774Z,34.10
2017-07-06T14:08:21.072Z,34.70
2017-07-06T14:10:50.504Z,37.70
2017-07-06T14:13:20.336Z,40.90
2017-07-06T14:15:49.345Z,44.10
2017-07-06T14:18:19.316Z,44.60
2017-07-06T14:20:48.407Z,44.90
2017-07-06T14:23:17.292Z,44.80
2017-07-06T14:25:45.893Z,44.50
2017-07-06T14:28:14.982Z,44.90
2017-07-06T14:30:44.077Z,46.50
2017-07-06T14:33:13.751Z,46.40
2017-07-06T14:35:42.397Z,47.60
2017-07-06T14:38:11.520Z,50.10
2017-07-06T14:40:40.614Z,50.40
2017-07-06T14:43:08.916Z,50.40
2017-07-06T14:45:37.687Z,49.10
2017-07-06T14:48:06.873Z,49.20
2017-07-06T14:50:36.318Z,47.50
2017-07-06T14:53:04.805Z,47.50
2017-07-06T14:55:33.158Z,48.00
2017-07-06T14:58:02.706Z,47.30
2017-07-06T15:00:31.014Z,47.20
2017-07-06T15:02:59.427Z,48.10
2017-07-06T15:05:28.536Z,49.70
2017-07-06T15:07:57.646Z,49.60
2017-07-06T15:10:27.729Z,49.90
2017-07-06T15:12:57.176Z,49.30
2017-07-06T15:15:26.181Z,49.30
2017-07-06T15:17:54.501Z,48.00
2017-07-06T15:20:26.425Z,46.10
2017-07-06T15:22:55.110Z,45.00
2017-07-06T15:25:24.195Z,44.40
2017-07-06T15:27:52.552Z,44.40
2017-07-06T15:30:21.632Z,43.20
2017-07-06T15:32:49.959Z,41.00
2017-07-06T15:35:19.328Z,39.30
2017-07-06T15:37:48.791Z,37.10
2017-07-06T15:40:17.879Z,36.10
2017-07-06T15:42:47.906Z,36.00
2017-07-06T15:45:16.177Z,35.70
2017-07-06T15:47:44.759Z,35.60
2017-07-06T15:50:13.156Z,35.40
2017-07-06T15:52:41.433Z,35.20
2017-07-06T15:55:09.807Z,35.00
2017-07-06T15:57:38.266Z,34.80
2017-07-06T16:00:07.420Z,34.50
2017-07-06T16:02:37.279Z,33.70
2017-07-06T16:05:05.572Z,33.60
2017-07-06T16:07:33.883Z,33.20
2017-07-06T16:10:02.963Z,32.50
2017-07-06T16:12:32.077Z,32.40
2017-07-06T16:15:01.324Z,32.20
2017-07-06T16:17:29.630Z,32.20
2017-07-06T16:19:57.935Z,32.20
2017-07-06T16:22:26.259Z,32.20
2017-07-06T16:24:54.852Z,32.10
2017-07-06T16:27:23.893Z,31.80
2017-07-06T16:29:52.284Z,31.80
2017-07-06T16:32:20.674Z,31.70
2017-07-06T16:34:49.427Z,31.30
2017-07-06T16:37:18.064Z,31.10
2017-07-06T16:39:46.369Z,30.90
2017-07-06T16:42:15.752Z,30.30
2017-07-06T16:44:44.032Z,30.30
2017-07-06T16:47:12.383Z,30.20
2017-07-06T16:49:42.447Z,30.20
2017-07-06T16:52:10.779Z,30.20
2017-07-06T16:54:39.673Z,30.20
2017-07-06T16:57:07.989Z,30.30
2017-07-06T16:59:36.283Z,30.30
2017-07-06T17:02:04.945Z,30.30
2017-07-06T17:04:33.222Z,30.10
2017-07-06T17:07:01.489Z,29.70
2017-07-06T17:09:29.811Z,29.60
2017-07-06T17:11:59.036Z,29.60
2017-07-06T17:14:27.702Z,29.60
2017-07-06T17:16:55.993Z,29.60
2017-07-06T17:19:25.727Z,29.50
2017-07-06T17:21:54.472Z,29.40
2017-07-06T17:24:22.866Z,29.20
2017-07-06T17:26:51.444Z,29.00
2017-07-06T17:29:20.569Z,28.90
2017-07-06T17:31:49.679Z,28.80
2017-07-06T17:34:18.862Z,28.60
2017-07-06T17:36:47.172Z,28.60
2017-07-06T17:39:15.823Z,28.60
2017-07-06T17:41:44.887Z,28.50
2017-07-06T17:44:13.964Z,28.40
2017-07-06T17:46:43.400Z,28.20
2017-07-06T17:49:11.683Z,28.20
2017-07-06T17:51:41.037Z,28.20
2017-07-06T17:54:09.428Z,28.20
2017-07-06T17:56:38.488Z,27.90
2017-07-06T17:59:06.796Z,27.90
2017-07-06T18:01:35.790Z,27.80
2017-07-06T18:04:04.657Z,27.70
2017-07-06T18:06:32.906Z,27.60
2017-07-06T18:09:02.618Z,27.40
2017-07-06T18:11:30.955Z,27.30
2017-07-06T18:13:59.272Z,27.40
2017-07-06T18:16:28.752Z,27.30
2017-07-06T18:18:58.117Z,27.30
2017-07-06T18:21:27.776Z,27.30
2017-07-06T18:23:56.107Z,27.30
2017-07-06T18:26:24.448Z,27.30
2017-07-06T18:28:53.147Z,27.20
2017-07-06T18:31:21.517Z,27.20
2017-07-06T18:33:50.326Z,27.10
2017-07-06T18:36:19.490Z,27.00
2017-07-06T18:38:48.686Z,26.90
2017-07-06T18:41:18.605Z,26.80
2017-07-06T18:43:47.598Z,26.70
2017-07-06T18:46:16.324Z,26.60
2017-07-06T18:48:44.637Z,26.40
2017-07-06T18:51:12.922Z,26.40
2017-07-06T18:53:41.552Z,26.20
2017-07-06T18:56:09.845Z,26.10
2017-07-06T18:58:38.164Z,26.00
2017-07-06T19:01:06.461Z,25.80
2017-07-06T19:03:35.242Z,25.70
2017-07-06T19:06:04.598Z,25.50
2017-07-06T19:08:32.905Z,25.50
2017-07-06T19:11:02.106Z,25.40
2017-07-06T19:13:30.476Z,25.30
2017-07-06T19:16:00.116Z,25.10
2017-07-06T19:18:29.489Z,24.90
2017-07-06T19:20:57.797Z,24.90
2017-07-06T19:23:26.106Z,24.80
2017-07-06T19:25:55.187Z,24.50
2017-07-06T19:28:23.525Z,24.50
2017-07-06T19:30:53.015Z,24.40
2017-07-06T19:33:21.335Z,24.30
2017-07-06T19:35:50.550Z,24.20
2017-07-06T19:38:18.944Z,24.00
2017-07-06T19:40:48.011Z,23.90
2017-07-06T19:43:16.726Z,23.80
2017-07-06T19:45:45.205Z,23.70
2017-07-06T19:48:14.121Z,23.60
2017-07-06T19:50:42.497Z,23.40
2017-07-06T19:53:10.773Z,23.30
2017-07-06T19:55:39.350Z,23.10
2017-07-06T19:58:07.739Z,23.00
2017-07-06T20:00:36.943Z,22.90
2017-07-06T20:03:05.256Z,22.80
2017-07-06T20:05:33.981Z,22.70
2017-07-06T20:08:02.635Z,22.50
2017-07-06T20:10:31.668Z,22.40
2017-07-06T20:13:00.035Z,22.40
2017-07-06T20:15:28.635Z,22.30
2017-07-06T20:17:57.801Z,22.20
2017-07-06T20:20:26.901Z,22.10
2017-07-06T20:22:57.941Z,22.00
2017-07-06T20:25:27.017Z,22.00
2017-07-06T20:27:55.708Z,22.00
2017-07-06T20:30:23.977Z,21.90
2017-07-06T20:32:53.448Z,21.90
2017-07-06T20:35:21.758Z,21.80
2017-07-06T20:37:50.053Z,21.80
2017-07-06T20:40:19.541Z,21.70
2017-07-06T20:42:47.910Z,21.60
2017-07-06T20:45:17.320Z,21.60
2017-07-06T20:47:45.620Z,21.60
2017-07-06T20:50:14.723Z,21.50
2017-07-06T20:52:43.031Z,21.40
2017-07-06T20:55:22.969Z,21.40
2017-07-06T20:57:52.089Z,21.30
2017-07-06T21:00:21.147Z,21.30
2017-07-06T21:02:49.750Z,21.20
2017-07-06T21:05:18.469Z,21.20
2017-07-06T21:07:47.664Z,21.10
2017-07-06T21:10:15.947Z,21.10
2017-07-06T21:12:48.734Z,21.10
2017-07-06T21:15:18.597Z,21.00
2017-07-06T21:17:48.377Z,21.00
2017-07-06T21:20:18.187Z,20.90
2017-07-06T21:22:47.266Z,20.90
2017-07-06T21:25:15.581Z,20.80
2017-07-06T21:27:44.220Z,20.80
2017-07-06T21:30:13.061Z,20.80
2017-07-06T21:32:42.243Z,20.80
2017-07-06T21:35:10.623Z,20.80
2017-07-06T21:37:39.603Z,20.80
2017-07-06T21:40:08.980Z,20.70
2017-07-06T21:42:37.272Z,20.70
2017-07-06T21:45:05.563Z,20.70
2017-07-06T21:47:34.417Z,20.60
2017-07-06T21:50:02.705Z,20.50
2017-07-06T21:52:31.375Z,20.50
2017-07-06T21:55:00.458Z,20.40
2017-07-06T21:57:28.752Z,20.30
2017-07-06T21:59:57.073Z,20.30
2017-07-06T22:02:25.379Z,20.30
2017-07-06T22:04:53.979Z,20.30
2017-07-06T22:07:23.201Z,20.20
2017-07-06T22:09:52.407Z,20.20
2017-07-06T22:12:21.897Z,20.10
2017-07-06T22:14:50.305Z,20.10
2017-07-06T22:17:18.623Z,20.00
2017-07-06T22:19:46.946Z,20.00
2017-07-06T22:22:16.035Z,19.90
2017-07-06T22:24:44.660Z,19.90
2017-07-06T22:27:12.885Z,19.90
2017-07-06T22:29:42.229Z,19.90
2017-07-06T22:32:10.977Z,19.90
2017-07-06T22:34:39.273Z,19.90
2017-07-06T22:37:07.594Z,19.80
2017-07-06T22:39:36.258Z,19.80
2017-07-06T22:42:04.549Z,19.80
2017-07-06T22:44:32.908Z,19.80
2017-07-06T22:47:01.504Z,19.70
2017-07-06T22:49:29.815Z,19.70
2017-07-06T22:51:58.100Z,19.70
2017-07-06T22:54:27.028Z,19.60
2017-07-06T22:56:55.367Z,19.60
2017-07-06T22:59:23.699Z,19.60
2017-07-06T23:01:52.344Z,19.60
2017-07-06T23:04:21.154Z,19.60
2017-07-06T23:06:50.216Z,19.50
2017-07-06T23:09:19.490Z,19.50
2017-07-06T23:11:47.802Z,19.50
2017-07-06T23:14:16.096Z,19.50
2017-07-06T23:16:44.775Z,19.50
2017-07-06T23:19:13.057Z,19.40
2017-07-06T23:21:41.360Z,19.40
2017-07-06T23:24:10.020Z,19.30
2017-07-06T23:26:38.330Z,19.30
2017-07-06T23:29:06.626Z,19.20
2017-07-06T23:31:36.699Z,19.20
2017-07-06T23:34:05.740Z,19.10
2017-07-06T23:36:34.799Z,19.10
2017-07-06T23:39:03.355Z,19.10
2017-07-06T23:41:33.232Z,19.10
2017-07-06T23:44:02.976Z,19.00
2017-07-06T23:46:32.358Z,19.00
2017-07-06T23:49:00.729Z,19.00
2017-07-06T23:51:29.433Z,19.00
2017-07-06T23:53:58.731Z,18.90
2017-07-06T23:56:27.963Z,18.90
2017-07-06T23:58:56.271Z,18.80
